Time;durP1;ratioP1;P1;durP2;ratioP2;P2;SDS_P1;SDS_P2;PMS_P1;PMS_P2;Temp;Humidity;BMP_temperature;BMP_pressure;BME280_temperature;BME280_humidity;BME280_pressure;Samples;Min_cycle;Max_cycle;Signal;HPM_P1;HPM_P2
2023/04/06 00:00:52;;;;;;;8.20;5.60;;;;;;;;;;4995936;28;20665;-91
2023/04/06 00:03:19;;;;;;;8.63;6.10;;;;;;;;;;4996485;28;20230;-92
2023/04/06 00:05:46;;;;;;;9.80;6.40;;;;;;;;;;4996185;28;20201;-91
2023/04/06 00:08:13;;;;;;;8.00;6.13;;;;;;;;;;4995933;28;20204;-92
2023/04/06 00:10:40;;;;;;;8.67;5.70;;;;;;;;;;4996304;28;20206;-92
2023/04/06 00:13:07;;;;;;;9.13;5.90;;;;;;;;;;4995809;28;20243;-92
2023/04/06 00:15:34;;;;;;;6.33;5.67;;;;;;;;;;4996162;28;20584;-92
2023/04/06 00:18:03;;;;;;;7.97;6.13;;;;;;;;;;4995231;28;20259;-91
2023/04/06 00:20:30;;;;;;;7.57;6.10;;;;;;;;;;4996977;28;20211;-92
2023/04/06 00:22:57;;;;;;;7.90;6.57;;;;;;;;;;4996485;28;20235;-92
2023/04/06 00:25:24;;;;;;;8.50;5.87;;;;;;;;;;4996201;28;20589;-92
2023/04/06 00:27:51;;;;;;;7.70;6.00;;;;;;;;;;4995255;28;20274;-92
2023/04/06 00:30:19;;;;;;;7.10;5.90;;;;;;;;;;4997092;28;20215;-92
2023/04/06 00:32:46;;;;;;;8.90;6.20;;;;;;;;;;4995703;28;20234;-92
2023/04/06 00:35:15;;;;;;;8.07;6.63;;;;;;;;;;4996375;28;20206;-92
2023/04/06 00:37:42;;;;;;;7.17;5.90;;;;;;;;;;4995581;28;20240;-92
2023/04/06 00:40:10;;;;;;;8.50;6.13;;;;;;;;;;4995897;28;20597;-92
2023/04/06 00:42:37;;;;;;;6.53;5.70;;;;;;;;;;4995438;28;20263;-92
2023/04/06 00:45:04;;;;;;;6.57;5.87;;;;;;;;;;4996098;28;20207;-92
2023/04/06 00:47:31;;;;;;;6.03;5.27;;;;;;;;;;4995390;28;20244;-92
2023/04/06 00:49:58;;;;;;;7.10;6.50;;;;;;;;;;4996898;28;20202;-92
2023/04/06 00:52:27;;;;;;;8.60;5.87;;;;;;;;;;4995098;28;20236;-92
2023/04/06 00:54:54;;;;;;;7.83;5.70;;;;;;;;;;4996239;28;20211;-92
2023/04/06 00:57:21;;;;;;;6.80;5.73;;;;;;;;;;4995389;28;20235;-88
2023/04/06 00:59:48;;;;;;;6.23;5.63;;;;;;;;;;4995406;28;20665;-87
2023/04/06 01:02:15;;;;;;;8.83;6.23;;;;;;;;;;4994446;28;20704;-86
2023/04/06 01:04:43;;;;;;;6.83;5.87;;;;;;;;;;4993180;28;20219;-87
2023/04/06 01:07:10;;;;;;;6.63;6.00;;;;;;;;;;4995317;28;20246;-86
2023/04/06 01:09:40;;;;;;;7.40;5.67;;;;;;;;;;4996457;28;20208;-87
2023/04/06 01:12:08;;;;;;;6.43;5.83;;;;;;;;;;4996315;28;20252;-87
2023/04/06 01:14:35;;;;;;;8.30;6.10;;;;;;;;;;4995586;28;20225;-86
2023/04/06 01:17:02;;;;;;;8.43;6.17;;;;;;;;;;4994918;28;20249;-86
2023/04/06 01:19:29;;;;;;;7.67;5.70;;;;;;;;;;4995037;28;20207;-87
2023/04/06 01:21:56;;;;;;;6.50;5.83;;;;;;;;;;4994966;28;20231;-86
2023/04/06 01:24:24;;;;;;;7.77;5.80;;;;;;;;;;4994920;28;20208;-86
2023/04/06 01:26:51;;;;;;;6.73;6.07;;;;;;;;;;4994303;28;20236;-86
2023/04/06 01:29:19;;;;;;;6.67;6.00;;;;;;;;;;4995295;28;20218;-87
2023/04/06 01:31:46;;;;;;;8.87;5.63;;;;;;;;;;4994171;28;20241;-87
2023/04/06 01:34:13;;;;;;;8.30;6.13;;;;;;;;;;4994873;28;20207;-86
2023/04/06 01:36:40;;;;;;;5.83;5.20;;;;;;;;;;4994541;28;20236;-86
2023/04/06 01:39:07;;;;;;;8.10;6.07;;;;;;;;;;4994622;28;20211;-86
2023/04/06 01:41:36;;;;;;;7.90;6.03;;;;;;;;;;4994052;28;20227;-86
2023/04/06 01:44:03;;;;;;;6.97;5.80;;;;;;;;;;4994512;28;20907;-87
2023/04/06 01:46:30;;;;;;;7.37;5.50;;;;;;;;;;4994047;28;20242;-87
2023/04/06 01:48:57;;;;;;;8.03;5.90;;;;;;;;;;4994513;28;20211;-87
2023/04/06 01:51:25;;;;;;;8.33;6.50;;;;;;;;;;4993690;28;20228;-86
2023/04/06 01:53:52;;;;;;;6.23;5.60;;;;;;;;;;4994814;28;20232;-86
2023/04/06 01:56:19;;;;;;;7.00;6.10;;;;;;;;;;4993599;28;20240;-86
2023/04/06 01:58:48;;;;;;;6.87;6.17;;;;;;;;;;4994903;28;20499;-86
2023/04/06 02:01:15;;;;;;;9.80;7.07;;;;;;;;;;4993575;28;20247;-86
2023/04/06 02:03:42;;;;;;;7.17;6.10;;;;;;;;;;4974988;28;20216;-86
2023/04/06 02:06:09;;;;;;;8.50;5.80;;;;;;;;;;4977762;28;20246;-85
2023/04/06 02:08:36;;;;;;;6.33;5.60;;;;;;;;;;4995104;28;20591;-86
2023/04/06 02:11:04;;;;;;;8.20;5.97;;;;;;;;;;4997219;28;20567;-87
2023/04/06 02:13:31;;;;;;;8.60;6.57;;;;;;;;;;4994296;28;20223;-86
2023/04/06 02:15:59;;;;;;;6.60;5.90;;;;;;;;;;4993932;28;20210;-85
2023/04/06 02:18:27;;;;;;;7.47;6.17;;;;;;;;;;5012561;28;20225;-86
2023/04/06 02:20:54;;;;;;;7.93;5.93;;;;;;;;;;5013358;28;20217;-86
2023/04/06 02:23:21;;;;;;;9.10;5.90;;;;;;;;;;5007432;28;20199;-86
2023/04/06 02:25:48;;;;;;;6.13;5.37;;;;;;;;;;4993455;28;20202;-87
2023/04/06 02:28:15;;;;;;;7.27;4.90;;;;;;;;;;4996670;28;20202;-86
2023/04/06 02:30:42;;;;;;;7.57;6.00;;;;;;;;;;5007362;28;20640;-88
2023/04/06 02:33:11;;;;;;;5.57;5.07;;;;;;;;;;5003235;28;20214;-86
2023/04/06 02:35:38;;;;;;;5.83;5.23;;;;;;;;;;5009095;28;20663;-87
2023/04/06 02:38:05;;;;;;;5.77;5.03;;;;;;;;;;5010111;28;20230;-86
2023/04/06 02:40:32;;;;;;;6.97;5.37;;;;;;;;;;5013992;28;20268;-87
2023/04/06 02:42:59;;;;;;;6.17;5.57;;;;;;;;;;5013722;28;20237;-86
2023/04/06 02:45:26;;;;;;;9.00;6.10;;;;;;;;;;5013864;28;20209;-86
2023/04/06 02:47:53;;;;;;;6.47;5.47;;;;;;;;;;5006891;28;20651;-87
2023/04/06 02:50:21;;;;;;;6.73;5.53;;;;;;;;;;4995928;28;20207;-86
2023/04/06 02:52:49;;;;;;;7.13;5.83;;;;;;;;;;5016315;28;20716;-87
2023/04/06 02:55:16;;;;;;;5.87;5.27;;;;;;;;;;4998068;28;20242;-86
2023/04/06 02:57:43;;;;;;;12.27;4.93;;;;;;;;;;5000544;28;20729;-86
2023/04/06 03:00:11;;;;;;;7.33;5.47;;;;;;;;;;5006266;28;20650;-86
2023/04/06 03:02:38;;;;;;;7.27;5.50;;;;;;;;;;4998525;28;20241;-87
2023/04/06 03:05:05;;;;;;;5.63;4.90;;;;;;;;;;5017813;28;20217;-86
2023/04/06 03:07:34;;;;;;;6.67;5.63;;;;;;;;;;5017777;28;20237;-86
2023/04/06 03:10:01;;;;;;;6.00;5.43;;;;;;;;;;5018128;28;20575;-87
2023/04/06 03:12:28;;;;;;;9.03;5.57;;;;;;;;;;5016710;28;20244;-86
2023/04/06 03:14:55;;;;;;;6.57;5.10;;;;;;;;;;5017349;28;20298;-87
2023/04/06 03:17:22;;;;;;;8.60;5.27;;;;;;;;;;5016859;28;20235;-86
2023/04/06 03:19:49;;;;;;;5.63;5.13;;;;;;;;;;5017267;28;20213;-87
2023/04/06 03:22:16;;;;;;;7.10;5.10;;;;;;;;;;5016916;28;20237;-86
2023/04/06 03:24:45;;;;;;;7.70;5.20;;;;;;;;;;5016766;28;20194;-86
2023/04/06 03:27:12;;;;;;;6.03;5.50;;;;;;;;;;5016784;28;20249;-87
2023/04/06 03:29:39;;;;;;;5.80;5.20;;;;;;;;;;5017487;28;20685;-86
2023/04/06 03:32:06;;;;;;;5.80;5.20;;;;;;;;;;5000180;28;20272;-86
2023/04/06 03:34:33;;;;;;;8.50;5.97;;;;;;;;;;4997202;28;20232;-86
2023/04/06 03:37:00;;;;;;;8.60;5.50;;;;;;;;;;4996982;28;20250;-86
2023/04/06 03:39:27;;;;;;;6.23;5.60;;;;;;;;;;5014580;28;20274;-86
2023/04/06 03:41:56;;;;;;;10.23;5.30;;;;;;;;;;4998991;28;20235;-86
2023/04/06 03:44:23;;;;;;;5.73;5.17;;;;;;;;;;4997317;28;20578;-87
2023/04/06 03:46:50;;;;;;;6.00;5.07;;;;;;;;;;4995930;28;20239;-86
2023/04/06 03:49:17;;;;;;;5.77;5.27;;;;;;;;;;5005674;28;20215;-86
2023/04/06 03:51:44;;;;;;;6.73;4.97;;;;;;;;;;5015689;28;20239;-87
2023/04/06 03:54:11;;;;;;;5.83;5.30;;;;;;;;;;5012848;28;20225;-87
2023/04/06 03:56:38;;;;;;;8.27;5.73;;;;;;;;;;4996149;28;20239;-86
2023/04/06 03:59:06;;;;;;;14.83;5.17;;;;;;;;;;4996925;28;20229;-87
2023/04/06 04:01:33;;;;;;;6.17;5.57;;;;;;;;;;5005157;28;20236;-86
2023/04/06 04:04:00;;;;;;;6.17;5.30;;;;;;;;;;5015759;28;20726;-87
2023/04/06 04:06:27;;;;;;;6.53;5.70;;;;;;;;;;4998107;28;20256;-86
2023/04/06 04:08:54;;;;;;;6.93;5.57;;;;;;;;;;5015071;28;20205;-87
2023/04/06 04:11:21;;;;;;;6.27;5.67;;;;;;;;;;4998294;28;20636;-86
2023/04/06 04:13:49;;;;;;;8.80;5.40;;;;;;;;;;5015658;28;20208;-86
2023/04/06 04:16:17;;;;;;;6.87;5.63;;;;;;;;;;5007063;28;20265;-86
2023/04/06 04:18:46;;;;;;;9.13;6.20;;;;;;;;;;5002742;28;20243;-87
2023/04/06 04:21:14;;;;;;;6.30;5.23;;;;;;;;;;5004308;28;20241;-86
2023/04/06 04:23:41;;;;;;;9.27;5.67;;;;;;;;;;5009974;28;20656;-86
2023/04/06 04:26:08;;;;;;;7.10;5.43;;;;;;;;;;5014487;28;20241;-87
2023/04/06 04:28:35;;;;;;;6.40;5.67;;;;;;;;;;5006912;28;20207;-87
2023/04/06 04:31:02;;;;;;;15.60;6.00;;;;;;;;;;4997081;28;20693;-87
2023/04/06 04:33:40;;;;;;;9.87;5.00;;;;;;;;;;4995497;28;20201;-87
2023/04/06 04:36:08;;;;;;;5.53;5.03;;;;;;;;;;4994660;28;20246;-86
2023/04/06 04:38:35;;;;;;;6.27;5.60;;;;;;;;;;4995522;28;20236;-87
2023/04/06 04:41:02;;;;;;;6.67;4.93;;;;;;;;;;5009768;28;20568;-85
2023/04/06 04:43:29;;;;;;;5.83;5.23;;;;;;;;;;5014660;28;20208;-87
2023/04/06 04:45:56;;;;;;;6.10;5.43;;;;;;;;;;5014173;28;20693;-86
2023/04/06 04:48:23;;;;;;;6.30;5.70;;;;;;;;;;5003518;28;20207;-88
2023/04/06 04:50:51;;;;;;;7.97;5.60;;;;;;;;;;4994779;28;20201;-87
2023/04/06 04:53:18;;;;;;;7.67;6.63;;;;;;;;;;4995318;28;20209;-88
2023/04/06 04:55:45;;;;;;;6.47;5.50;;;;;;;;;;4994553;28;20685;-89
2023/04/06 04:58:16;;;;;;;5.80;4.80;;;;;;;;;;4995058;28;20228;-88
2023/04/06 05:00:43;;;;;;;11.87;5.97;;;;;;;;;;5014124;28;20208;-88
2023/04/06 05:03:10;;;;;;;6.50;5.63;;;;;;;;;;5014301;28;20211;-88
2023/04/06 05:05:37;;;;;;;6.47;5.87;;;;;;;;;;5015108;28;20311;-88
2023/04/06 05:08:06;;;;;;;7.03;5.97;;;;;;;;;;5013908;28;20271;-85
2023/04/06 05:10:34;;;;;;;9.70;5.73;;;;;;;;;;5013834;28;20238;-86
2023/04/06 05:13:01;;;;;;;7.90;5.97;;;;;;;;;;5012756;28;20232;-86
2023/04/06 05:15:28;;;;;;;6.57;5.87;;;;;;;;;;5014365;28;20204;-86
2023/04/06 05:17:55;;;;;;;9.57;6.37;;;;;;;;;;5013344;28;20247;-85
2023/04/06 05:20:22;;;;;;;6.97;5.57;;;;;;;;;;5014343;28;20212;-86
2023/04/06 05:22:49;;;;;;;7.37;5.67;;;;;;;;;;5013291;28;20584;-87
2023/04/06 05:25:17;;;;;;;9.50;7.53;;;;;;;;;;5014519;28;20207;-86
2023/04/06 05:27:44;;;;;;;9.77;6.33;;;;;;;;;;5013164;28;20234;-86
2023/04/06 05:30:12;;;;;;;7.07;5.77;;;;;;;;;;5012369;28;20203;-86
2023/04/06 05:32:39;;;;;;;6.07;5.47;;;;;;;;;;5013498;28;20239;-85
2023/04/06 05:35:06;;;;;;;7.83;5.60;;;;;;;;;;5013427;28;20197;-85
2023/04/06 05:37:33;;;;;;;9.40;6.37;;;;;;;;;;5012527;28;20243;-86
2023/04/06 05:40:00;;;;;;;11.73;6.13;;;;;;;;;;5013124;28;20665;-86
2023/04/06 05:42:29;;;;;;;7.43;6.23;;;;;;;;;;5013243;28;20736;-86
2023/04/06 05:44:57;;;;;;;7.23;6.53;;;;;;;;;;5013697;28;20197;-86
2023/04/06 05:47:24;;;;;;;6.70;6.03;;;;;;;;;;5012976;28;20258;-85
2023/04/06 05:49:51;;;;;;;9.13;6.10;;;;;;;;;;5014129;28;20211;-85
2023/04/06 05:52:18;;;;;;;11.73;6.33;;;;;;;;;;5012522;28;20235;-84
2023/04/06 05:54:45;;;;;;;8.00;5.93;;;;;;;;;;5013208;28;20204;-85
2023/04/06 05:57:12;;;;;;;9.80;6.80;;;;;;;;;;5013512;28;20243;-85
2023/04/06 05:59:40;;;;;;;9.47;6.80;;;;;;;;;;5013221;28;20229;-84
2023/04/06 06:02:08;;;;;;;7.80;6.40;;;;;;;;;;5012510;28;20239;-85
2023/04/06 06:04:36;;;;;;;7.73;6.63;;;;;;;;;;5013131;28;20207;-84
2023/04/06 06:07:03;;;;;;;7.83;6.93;;;;;;;;;;5018372;28;20245;-84
2023/04/06 06:09:30;;;;;;;15.70;7.50;;;;;;;;;;5012856;28;20546;-84
2023/04/06 06:11:57;;;;;;;9.40;6.67;;;;;;;;;;5011794;28;20242;-84
2023/04/06 06:14:24;;;;;;;7.60;6.80;;;;;;;;;;5013015;28;20219;-84
2023/04/06 06:16:52;;;;;;;9.57;7.17;;;;;;;;;;5011989;28;20256;-84
2023/04/06 06:19:19;;;;;;;7.70;6.90;;;;;;;;;;5012635;28;20233;-84
2023/04/06 06:21:47;;;;;;;8.87;7.10;;;;;;;;;;5011853;28;20727;-84
2023/04/06 06:24:14;;;;;;;7.37;6.60;;;;;;;;;;5012129;28;20252;-84
2023/04/06 06:26:41;;;;;;;18.53;7.50;;;;;;;;;;5015511;28;20237;-84
2023/04/06 06:29:08;;;;;;;9.17;6.17;;;;;;;;;;5016798;28;20296;-84
2023/04/06 06:31:35;;;;;;;8.60;7.47;;;;;;;;;;5017703;28;20632;-84
2023/04/06 06:34:03;;;;;;;7.90;6.80;;;;;;;;;;5016731;28;20206;-84
2023/04/06 06:36:31;;;;;;;9.67;7.63;;;;;;;;;;5016081;28;20684;-84
2023/04/06 06:39:00;;;;;;;11.77;6.90;;;;;;;;;;5016326;28;20229;-83
2023/04/06 06:41:27;;;;;;;11.93;7.47;;;;;;;;;;5017248;28;20238;-84
2023/04/06 06:43:54;;;;;;;11.97;7.80;;;;;;;;;;5016675;28;20597;-84
2023/04/06 06:46:21;;;;;;;9.40;7.17;;;;;;;;;;5021588;28;20235;-83
2023/04/06 06:48:48;;;;;;;8.27;6.97;;;;;;;;;;5015745;28;20220;-84
2023/04/06 06:51:17;;;;;;;7.33;6.40;;;;;;;;;;5015930;28;20234;-84
2023/04/06 06:53:44;;;;;;;10.30;7.43;;;;;;;;;;5016599;28;20667;-84
2023/04/06 06:56:12;;;;;;;11.07;7.43;;;;;;;;;;5014585;28;20726;-84
2023/04/06 06:58:39;;;;;;;9.97;8.20;;;;;;;;;;5017955;28;20598;-86
2023/04/06 07:01:06;;;;;;;13.00;8.43;;;;;;;;;;5018530;28;20238;-86
2023/04/06 07:03:34;;;;;;;9.60;7.97;;;;;;;;;;5011744;28;20222;-86
2023/04/06 07:06:02;;;;;;;11.83;8.63;;;;;;;;;;4996493;28;20237;-85
2023/04/06 07:08:30;;;;;;;13.20;8.43;;;;;;;;;;5029063;28;20204;-85
2023/04/06 07:10:57;;;;;;;43.73;18.07;;;;;;;;;;5035136;28;20236;-85
2023/04/06 07:13:26;;;;;;;11.50;8.60;;;;;;;;;;5036167;28;20213;-85
2023/04/06 07:15:54;;;;;;;10.67;8.83;;;;;;;;;;5035387;28;20213;-86
2023/04/06 07:18:21;;;;;;;11.13;8.30;;;;;;;;;;5022556;28;20231;-86
2023/04/06 07:20:48;;;;;;;9.03;8.03;;;;;;;;;;5014903;28;20698;-86
2023/04/06 07:23:15;;;;;;;9.63;8.30;;;;;;;;;;5015490;28;20206;-87
2023/04/06 07:25:44;;;;;;;13.43;8.60;;;;;;;;;;5015554;28;20263;-86
2023/04/06 07:28:11;;;;;;;14.20;9.20;;;;;;;;;;5027188;28;20301;-87
2023/04/06 07:30:38;;;;;;;12.67;8.67;;;;;;;;;;5035049;28;20206;-87
2023/04/06 07:33:06;;;;;;;12.30;9.57;;;;;;;;;;5034286;28;20728;-86
2023/04/06 07:35:34;;;;;;;11.20;8.27;;;;;;;;;;5034812;28;20765;-87
2023/04/06 07:38:01;;;;;;;9.07;7.93;;;;;;;;;;5033596;28;20239;-86
2023/04/06 07:40:28;;;;;;;19.03;8.43;;;;;;;;;;5025827;28;20211;-87
2023/04/06 07:42:57;;;;;;;10.43;8.63;;;;;;;;;;5034189;28;20245;-86
2023/04/06 07:45:24;;;;;;;15.27;10.90;;;;;;;;;;5034892;28;20234;-87
2023/04/06 07:47:51;;;;;;;11.67;8.93;;;;;;;;;;5026330;28;20251;-87
2023/04/06 07:50:18;;;;;;;12.13;9.30;;;;;;;;;;5034948;28;20199;-88
2023/04/06 07:52:45;;;;;;;10.27;8.60;;;;;;;;;;5034385;28;20239;-86
2023/04/06 07:55:12;;;;;;;9.33;7.80;;;;;;;;;;5034620;28;20222;-86
2023/04/06 07:57:39;;;;;;;9.87;8.17;;;;;;;;;;5033155;28;20248;-85
2023/04/06 08:00:10;;;;;;;9.90;8.10;;;;;;;;;;5034595;28;20224;-86
2023/04/06 08:02:37;;;;;;;8.47;7.57;;;;;;;;;;5034993;28;20262;-88
2023/04/06 08:05:05;;;;;;;8.03;6.57;;;;;;;;;;5036544;28;20223;-88
2023/04/06 08:07:32;;;;;;;10.30;7.50;;;;;;;;;;5035079;28;20352;-88
2023/04/06 08:09:59;;;;;;;8.30;7.43;;;;;;;;;;5037497;28;20206;-88
2023/04/06 08:12:26;;;;;;;9.03;7.10;;;;;;;;;;5035170;28;20233;-85
2023/04/06 08:14:53;;;;;;;8.07;6.80;;;;;;;;;;5035079;28;20209;-90
2023/04/06 08:17:22;;;;;;;10.70;7.50;;;;;;;;;;5034121;28;20245;-90
2023/04/06 08:19:49;;;;;;;11.67;7.20;;;;;;;;;;5035301;28;20237;-90
2023/04/06 08:22:16;;;;;;;8.33;7.00;;;;;;;;;;5034393;28;20837;-90
2023/04/06 08:24:43;;;;;;;8.63;7.73;;;;;;;;;;5035051;28;20706;-90
2023/04/06 08:27:10;;;;;;;8.73;7.80;;;;;;;;;;5034077;28;20709;-91
2023/04/06 08:29:37;;;;;;;7.93;6.90;;;;;;;;;;5035206;28;20202;-89
2023/04/06 08:32:06;;;;;;;8.73;6.80;;;;;;;;;;5034046;28;20234;-89
2023/04/06 08:34:34;;;;;;;10.67;7.27;;;;;;;;;;5035113;28;20203;-89
2023/04/06 08:37:02;;;;;;;7.70;6.80;;;;;;;;;;5034524;28;20238;-89
2023/04/06 08:39:30;;;;;;;12.23;6.93;;;;;;;;;;5035500;28;20242;-89
2023/04/06 08:41:59;;;;;;;7.83;7.03;;;;;;;;;;5034807;28;20240;-89
2023/04/06 08:44:26;;;;;;;9.40;7.37;;;;;;;;;;5034930;28;20604;-89
2023/04/06 08:46:53;;;;;;;7.77;6.80;;;;;;;;;;5034004;28;20254;-89
2023/04/06 08:49:20;;;;;;;7.87;6.63;;;;;;;;;;5033768;28;20198;-90
2023/04/06 08:51:49;;;;;;;9.40;6.80;;;;;;;;;;5033732;28;20227;-89
2023/04/06 08:54:16;;;;;;;11.70;7.80;;;;;;;;;;5034806;28;20666;-88
2023/04/06 08:56:43;;;;;;;7.13;6.20;;;;;;;;;;5034043;28;20235;-89
2023/04/06 08:59:11;;;;;;;9.90;6.73;;;;;;;;;;5022653;28;20234;-90
2023/04/06 09:01:40;;;;;;;10.77;7.37;;;;;;;;;;5014140;28;20622;-89
2023/04/06 09:04:10;;;;;;;8.87;6.70;;;;;;;;;;5014519;28;20273;-90
2023/04/06 09:06:37;;;;;;;8.90;6.47;;;;;;;;;;5013782;28;20239;-90
2023/04/06 09:09:08;;;;;;;7.90;6.53;;;;;;;;;;5014401;28;20207;-90
2023/04/06 09:11:45;;;;;;;10.10;6.40;;;;;;;;;;5013734;28;20318;-90
2023/04/06 09:14:40;;;;;;;8.23;6.20;;;;;;;;;;5014523;28;20573;-90
2023/04/06 09:17:07;;;;;;;7.37;6.13;;;;;;;;;;4970355;28;20277;-89
2023/04/06 09:19:46;;;;;;;7.63;6.40;;;;;;;;;;4994558;28;20501;-90
2023/04/06 09:22:13;;;;;;;11.17;6.60;;;;;;;;;;5024259;28;20241;-89
2023/04/06 09:24:42;;;;;;;6.60;5.97;;;;;;;;;;5034292;28;20206;-90
2023/04/06 09:27:17;;;;;;;7.60;6.20;;;;;;;;;;5032303;28;20300;-88
2023/04/06 09:29:45;;;;;;;8.43;6.30;;;;;;;;;;5033469;28;20194;-85
2023/04/06 09:32:16;;;;;;;8.07;5.40;;;;;;;;;;5029043;28;20714;-85
2023/04/06 09:34:48;;;;;;;7.33;6.23;;;;;;;;;;5013915;28;20203;-86
2023/04/06 09:37:15;;;;;;;6.20;5.23;;;;;;;;;;5013171;28;21005;-86
2023/04/06 09:39:44;;;;;;;8.60;5.50;;;;;;;;;;5013583;28;20234;-86
2023/04/06 09:42:11;;;;;;;6.90;6.13;;;;;;;;;;5013030;28;20235;-86
2023/04/06 09:44:38;;;;;;;9.00;5.87;;;;;;;;;;5013884;28;20217;-86
2023/04/06 09:47:11;;;;;;;10.13;7.30;;;;;;;;;;5012747;28;20726;-86
2023/04/06 09:49:38;;;;;;;9.60;5.80;;;;;;;;;;5013671;28;20203;-86
2023/04/06 09:52:05;;;;;;;9.43;5.87;;;;;;;;;;5012498;28;20234;-86
2023/04/06 09:54:33;;;;;;;11.37;5.60;;;;;;;;;;5013506;28;20214;-86
2023/04/06 09:57:08;;;;;;;6.93;5.47;;;;;;;;;;5012785;28;20247;-86
2023/04/06 09:59:41;;;;;;;9.50;6.03;;;;;;;;;;5023126;28;20206;-86
2023/04/06 10:02:10;;;;;;;7.83;6.13;;;;;;;;;;5012375;28;20231;-87
2023/04/06 10:04:40;;;;;;;8.33;5.50;;;;;;;;;;5012368;28;20242;-87
2023/04/06 10:07:08;;;;;;;9.47;6.40;;;;;;;;;;5000712;28;20727;-86
2023/04/06 10:09:36;;;;;;;9.53;6.13;;;;;;;;;;4993167;28;20210;-86
2023/04/06 10:12:06;;;;;;;9.90;5.97;;;;;;;;;;4992307;28;20243;-86
2023/04/06 10:14:36;;;;;;;7.22;5.25;;;;;;;;;;4993244;28;20314;-86
2023/04/06 10:17:11;;;;;;;7.28;5.22;;;;;;;;;;4991378;28;20319;-86
2023/04/06 10:19:41;;;;;;;7.47;5.78;;;;;;;;;;4992807;28;20550;-86
2023/04/06 10:22:10;;;;;;;9.10;5.93;;;;;;;;;;4992144;28;20258;-86
2023/04/06 10:24:37;;;;;;;6.72;5.07;;;;;;;;;;4992864;28;20197;-87
2023/04/06 10:27:08;;;;;;;7.95;5.97;;;;;;;;;;4992171;28;20252;-87
2023/04/06 10:29:46;;;;;;;7.10;5.60;;;;;;;;;;4993090;28;20196;-87
2023/04/06 10:32:13;;;;;;;8.20;5.68;;;;;;;;;;4992610;28;20573;-86
2023/04/06 10:34:40;;;;;;;9.45;6.03;;;;;;;;;;4992938;28;20219;-86
2023/04/06 10:37:18;;;;;;;6.65;5.78;;;;;;;;;;5011530;28;20243;-86
2023/04/06 10:39:49;;;;;;;7.93;4.90;;;;;;;;;;5002465;28;20230;-87
2023/04/06 10:42:17;;;;;;;9.70;5.38;;;;;;;;;;5011411;28;20304;-86
2023/04/06 10:44:45;;;;;;;7.72;4.90;;;;;;;;;;5012175;28;20218;-86
2023/04/06 10:47:17;;;;;;;7.97;5.72;;;;;;;;;;5011583;28;20239;-86
2023/04/06 10:49:44;;;;;;;10.27;6.32;;;;;;;;;;5012389;28;20285;-86
2023/04/06 10:52:12;;;;;;;9.25;5.45;;;;;;;;;;5011441;28;20281;-86
2023/04/06 10:54:42;;;;;;;6.43;5.07;;;;;;;;;;5011811;28;20258;-86
2023/04/06 10:57:09;;;;;;;6.15;4.88;;;;;;;;;;5011496;28;20274;-87
2023/04/06 10:59:38;;;;;;;6.80;5.50;;;;;;;;;;5012161;28;20223;-87
2023/04/06 11:02:05;;;;;;;7.90;6.28;;;;;;;;;;5011366;28;20239;-86
2023/04/06 11:04:33;;;;;;;9.38;5.93;;;;;;;;;;5011884;28;20611;-86
2023/04/06 11:07:00;;;;;;;9.00;5.43;;;;;;;;;;5011684;28;20235;-88
2023/04/06 11:09:28;;;;;;;9.30;6.03;;;;;;;;;;5012507;28;20207;-86
2023/04/06 11:11:55;;;;;;;6.97;5.93;;;;;;;;;;5013617;28;20238;-86
2023/04/06 11:14:23;;;;;;;7.47;5.20;;;;;;;;;;5015808;28;20586;-86
2023/04/06 11:16:51;;;;;;;8.75;5.78;;;;;;;;;;5014393;28;20243;-86
2023/04/06 11:19:19;;;;;;;7.10;5.70;;;;;;;;;;5015341;28;20227;-87
2023/04/06 11:21:47;;;;;;;6.50;5.32;;;;;;;;;;5014614;28;20235;-86
2023/04/06 11:24:16;;;;;;;5.38;4.72;;;;;;;;;;5018029;28;20619;-87
2023/04/06 11:26:44;;;;;;;6.72;5.63;;;;;;;;;;5023027;28;20231;-86
2023/04/06 11:29:12;;;;;;;9.55;5.65;;;;;;;;;;5035665;28;20214;-87
2023/04/06 11:31:42;;;;;;;5.93;5.03;;;;;;;;;;5034442;28;20230;-87
2023/04/06 11:34:18;;;;;;;7.88;5.22;;;;;;;;;;5001504;28;20243;-86
2023/04/06 11:36:46;;;;;;;7.07;5.60;;;;;;;;;;5020410;28;20321;-86
2023/04/06 11:39:13;;;;;;;6.55;4.97;;;;;;;;;;5015519;28;20211;-87
2023/04/06 11:41:40;;;;;;;10.68;5.50;;;;;;;;;;5014308;28;20239;-86
2023/04/06 11:44:08;;;;;;;6.05;5.45;;;;;;;;;;5015356;28;20686;-87
2023/04/06 11:46:35;;;;;;;7.22;5.65;;;;;;;;;;5014371;28;20242;-87
2023/04/06 11:49:02;;;;;;;9.38;6.50;;;;;;;;;;5015087;28;20208;-87
2023/04/06 11:51:31;;;;;;;6.63;5.57;;;;;;;;;;5025419;28;20226;-87
2023/04/06 11:53:58;;;;;;;10.27;6.32;;;;;;;;;;5034609;28;20203;-87
2023/04/06 11:56:25;;;;;;;8.10;5.40;;;;;;;;;;5033771;28;20241;-85
2023/04/06 11:58:53;;;;;;;6.57;5.20;;;;;;;;;;5034512;28;20191;-86
2023/04/06 12:01:20;;;;;;;9.75;6.07;;;;;;;;;;5033178;28;20234;-86
2023/04/06 12:03:47;;;;;;;7.32;5.97;;;;;;;;;;5034185;28;20215;-86
2023/04/06 12:06:14;;;;;;;7.07;5.65;;;;;;;;;;5033817;28;20234;-87
2023/04/06 12:08:42;;;;;;;7.90;5.70;;;;;;;;;;5034202;28;20305;-86
2023/04/06 12:11:10;;;;;;;6.63;5.00;;;;;;;;;;5033315;28;20242;-86
2023/04/06 12:13:37;;;;;;;6.05;5.40;;;;;;;;;;5034564;28;20702;-86
2023/04/06 12:16:04;;;;;;;7.82;6.63;;;;;;;;;;5033253;28;20241;-86
2023/04/06 12:18:31;;;;;;;10.20;7.50;;;;;;;;;;5034335;28;20214;-86
2023/04/06 12:20:58;;;;;;;6.72;5.40;;;;;;;;;;5033139;28;20234;-86
2023/04/06 12:23:25;;;;;;;6.75;5.82;;;;;;;;;;5032951;28;20698;-86
2023/04/06 12:25:54;;;;;;;8.15;5.53;;;;;;;;;;5033408;28;20211;-86
2023/04/06 12:28:22;;;;;;;6.53;5.38;;;;;;;;;;5034070;28;20609;-86
2023/04/06 12:30:52;;;;;;;7.28;5.50;;;;;;;;;;5030814;28;20294;-86
2023/04/06 12:33:19;;;;;;;7.25;5.57;;;;;;;;;;5014222;28;20196;-86
2023/04/06 12:35:46;;;;;;;8.05;5.97;;;;;;;;;;5013641;28;20215;-87
2023/04/06 12:38:14;;;;;;;7.85;5.55;;;;;;;;;;5014270;28;20215;-87
2023/04/06 12:40:43;;;;;;;6.50;4.97;;;;;;;;;;5011964;28;20258;-86
2023/04/06 12:43:12;;;;;;;6.00;4.53;;;;;;;;;;5013452;28;20227;-87
2023/04/06 12:45:39;;;;;;;7.47;5.25;;;;;;;;;;5013760;28;20227;-87
2023/04/06 12:48:07;;;;;;;6.13;4.88;;;;;;;;;;5013323;28;20247;-86
2023/04/06 12:50:35;;;;;;;6.53;5.45;;;;;;;;;;5014069;28;20582;-87
2023/04/06 12:53:02;;;;;;;5.38;4.50;;;;;;;;;;5023363;28;20231;-87
2023/04/06 12:55:33;;;;;;;5.63;4.85;;;;;;;;;;5014137;28;20246;-87
2023/04/06 12:58:03;;;;;;;8.32;4.78;;;;;;;;;;5013899;28;20249;-86
2023/04/06 13:00:31;;;;;;;5.32;4.35;;;;;;;;;;5014515;28;20238;-86
2023/04/06 13:02:58;;;;;;;4.88;4.32;;;;;;;;;;5029540;28;20238;-86
2023/04/06 13:05:28;;;;;;;5.85;4.68;;;;;;;;;;5023902;28;20665;-86
2023/04/06 13:07:55;;;;;;;5.60;4.90;;;;;;;;;;5013180;28;20242;-87
2023/04/06 13:10:22;;;;;;;4.88;4.45;;;;;;;;;;5002636;28;20208;-86
2023/04/06 13:12:49;;;;;;;5.40;4.28;;;;;;;;;;4993852;28;20246;-86
2023/04/06 13:15:16;;;;;;;6.43;4.22;;;;;;;;;;5002616;28;20199;-85
2023/04/06 13:17:44;;;;;;;5.28;4.05;;;;;;;;;;5018453;28;20239;-86
2023/04/06 13:20:11;;;;;;;4.70;4.20;;;;;;;;;;5013239;28;20769;-86
2023/04/06 13:22:39;;;;;;;8.82;6.13;;;;;;;;;;5013027;28;20293;-86
2023/04/06 13:25:06;;;;;;;5.25;4.47;;;;;;;;;;5013462;28;20211;-86
2023/04/06 13:27:35;;;;;;;5.07;4.40;;;;;;;;;;5012972;28;20245;-87
2023/04/06 13:30:03;;;;;;;4.47;3.97;;;;;;;;;;5013218;28;20215;-86
2023/04/06 13:32:30;;;;;;;4.57;3.88;;;;;;;;;;5012606;28;20703;-85
2023/04/06 13:35:00;;;;;;;7.10;4.20;;;;;;;;;;5012608;28;20203;-86
2023/04/06 13:37:27;;;;;;;5.55;3.90;;;;;;;;;;4992284;28;20235;-85
2023/04/06 13:39:54;;;;;;;3.85;3.47;;;;;;;;;;4993595;28;20204;-86
2023/04/06 13:42:21;;;;;;;4.65;3.63;;;;;;;;;;4992710;28;20242;-86
2023/04/06 13:44:50;;;;;;;4.38;3.72;;;;;;;;;;4993906;28;20207;-85
2023/04/06 13:47:17;;;;;;;4.57;3.35;;;;;;;;;;5010833;28;20266;-86
2023/04/06 13:49:44;;;;;;;4.32;3.50;;;;;;;;;;5012826;28;20215;-85
2023/04/06 13:52:13;;;;;;;4.40;3.92;;;;;;;;;;5011495;28;20289;-85
2023/04/06 13:54:40;;;;;;;4.03;3.63;;;;;;;;;;5012409;28;20211;-85
2023/04/06 13:57:07;;;;;;;4.90;3.92;;;;;;;;;;5011495;28;20242;-85
2023/04/06 13:59:34;;;;;;;4.50;3.78;;;;;;;;;;5012356;28;20231;-86
2023/04/06 14:02:01;;;;;;;5.53;3.97;;;;;;;;;;5006698;28;20323;-86
2023/04/06 14:04:28;;;;;;;4.75;3.80;;;;;;;;;;5004243;28;20195;-84
2023/04/06 14:06:55;;;;;;;4.93;4.20;;;;;;;;;;5004753;28;20250;-85
2023/04/06 14:09:24;;;;;;;4.22;3.83;;;;;;;;;;4995928;28;20580;-85
2023/04/06 14:11:52;;;;;;;6.47;4.43;;;;;;;;;;4993052;28;20821;-86
2023/04/06 14:14:20;;;;;;;4.30;3.90;;;;;;;;;;5005205;28;20199;-85
2023/04/06 14:16:47;;;;;;;5.10;4.05;;;;;;;;;;5014785;28;20237;-86
2023/04/06 14:19:17;;;;;;;4.72;4.22;;;;;;;;;;5011852;28;20210;-84
2023/04/06 14:21:45;;;;;;;4.97;4.47;;;;;;;;;;5010740;28;20239;-84
2023/04/06 14:24:13;;;;;;;5.20;4.18;;;;;;;;;;4999692;28;20208;-85
2023/04/06 14:26:42;;;;;;;5.70;4.90;;;;;;;;;;5006782;28;20246;-84
2023/04/06 14:29:10;;;;;;;4.60;4.13;;;;;;;;;;5011224;28;20199;-85
2023/04/06 14:31:37;;;;;;;5.60;4.50;;;;;;;;;;5011057;28;20262;-84
2023/04/06 14:34:05;;;;;;;5.00;4.50;;;;;;;;;;5011475;28;20668;-84
2023/04/06 14:36:36;;;;;;;8.48;6.05;;;;;;;;;;5011648;28;20619;-90
2023/04/06 14:39:04;;;;;;;9.35;5.32;;;;;;;;;;5014104;28;20652;-96
2023/04/06 14:41:34;;;;;;;11.93;5.35;;;;;;;;;;5013021;28;20321;-86
2023/04/06 14:44:03;;;;;;;5.65;4.55;;;;;;;;;;5011865;28;20559;-93